createdAt,value
2022-09-24T00:01:58.910Z,3.97
2022-09-24T00:04:46.487Z,3.92
2022-09-24T00:07:28.938Z,3.80
2022-09-24T00:12:50.046Z,3.30
2022-09-24T00:15:13.669Z,3.10
2022-09-24T00:18:02.262Z,3.70
2022-09-24T00:20:28.633Z,3.53
2022-09-24T00:23:10.631Z,2.97
2022-09-24T00:26:01.698Z,3.38
2022-09-24T00:28:38.459Z,3.40
2022-09-24T00:31:10.136Z,3.47
2022-09-24T00:33:47.271Z,3.88
2022-09-24T00:36:12.378Z,3.40
2022-09-24T00:38:54.994Z,3.20
2022-09-24T00:41:45.045Z,3.40
2022-09-24T00:44:31.354Z,3.03
2022-09-24T00:47:32.536Z,3.63
2022-09-24T00:50:02.474Z,3.72
2022-09-24T00:52:41.460Z,3.72
2022-09-24T00:55:18.152Z,3.83
2022-09-24T00:57:54.400Z,4.43
2022-09-24T01:00:41.149Z,3.65
2022-09-24T01:03:44.017Z,3.10
2022-09-24T01:06:16.140Z,3.38
2022-09-24T01:09:05.952Z,3.50
2022-09-24T01:11:46.585Z,4.15
2022-09-24T01:15:07.359Z,3.50
2022-09-24T01:18:01.235Z,3.10
2022-09-24T01:20:49.619Z,2.70
2022-09-24T01:23:36.812Z,3.20
2022-09-24T01:26:45.646Z,2.50
2022-09-24T01:29:33.204Z,2.80
2022-09-24T01:32:15.945Z,3.00
2022-09-24T01:35:04.353Z,3.20
2022-09-24T01:37:55.398Z,3.10
2022-09-24T01:40:38.452Z,2.70
2022-09-24T01:43:25.040Z,2.85
2022-09-24T01:46:18.958Z,2.72
2022-09-24T01:49:04.530Z,2.75
2022-09-24T01:51:36.023Z,2.75
2022-09-24T01:54:36.930Z,2.55
2022-09-24T01:57:01.634Z,2.70
2022-09-24T01:59:49.560Z,2.63
2022-09-24T02:02:59.186Z,2.53
2022-09-24T02:05:38.498Z,2.50
2022-09-24T02:08:23.666Z,2.35
2022-09-24T02:10:56.903Z,2.38
2022-09-24T02:13:40.885Z,2.40
2022-09-24T02:16:31.613Z,2.50
2022-09-24T02:19:05.595Z,2.50
2022-09-24T02:21:43.579Z,2.65
2022-09-24T02:24:32.222Z,2.40
2022-09-24T02:27:18.309Z,2.67
2022-09-24T02:29:47.352Z,2.53
2022-09-24T02:32:38.249Z,2.22
2022-09-24T02:35:07.530Z,2.55
2022-09-24T02:37:29.852Z,2.53
2022-09-24T02:39:57.437Z,2.47
2022-09-24T02:42:18.957Z,2.40
2022-09-24T02:45:20.411Z,2.15
2022-09-24T02:47:59.886Z,2.38
2022-09-24T02:50:51.806Z,2.47
2022-09-24T02:53:41.937Z,2.30
2022-09-24T02:56:14.560Z,2.50
2022-09-24T02:58:35.105Z,2.47
2022-09-24T03:01:21.943Z,2.00
2022-09-24T03:04:15.922Z,2.33
2022-09-24T03:06:56.305Z,2.17
2022-09-24T03:09:22.415Z,2.55
2022-09-24T03:12:08.229Z,2.50
2022-09-24T03:14:27.392Z,2.38
2022-09-24T03:17:01.858Z,2.50
2022-09-24T03:19:59.553Z,2.58
2022-09-24T03:22:44.789Z,2.40
2022-09-24T03:25:22.256Z,2.25
2022-09-24T03:28:06.607Z,2.40
2022-09-24T03:30:52.608Z,2.70
2022-09-24T03:33:41.714Z,2.95
2022-09-24T03:36:11.679Z,2.65
2022-09-24T03:39:04.800Z,3.20
2022-09-24T03:41:45.531Z,2.53
2022-09-24T03:44:35.932Z,2.55
2022-09-24T03:47:09.901Z,2.70
2022-09-24T03:49:43.670Z,2.50
2022-09-24T03:52:22.989Z,2.40
2022-09-24T03:54:47.481Z,2.60
2022-09-24T03:57:20.836Z,2.55
2022-09-24T03:59:43.981Z,2.42
2022-09-24T04:02:26.006Z,2.30
2022-09-24T04:04:59.891Z,2.83
2022-09-24T04:07:31.224Z,2.33
2022-09-24T04:10:01.422Z,2.30
2022-09-24T04:12:53.824Z,2.90
2022-09-24T04:15:36.777Z,2.40
2022-09-24T04:18:23.104Z,2.42
2022-09-24T04:20:48.632Z,2.10
2022-09-24T04:22:59.318Z,2.28
2022-09-24T04:25:44.956Z,2.10
2022-09-24T04:28:11.621Z,2.40
2022-09-24T04:30:42.743Z,2.40
2022-09-24T04:33:07.584Z,2.50
2022-09-24T04:35:49.410Z,2.55
2022-09-24T04:38:32.086Z,1.95
2022-09-24T04:41:27.482Z,2.33
2022-09-24T04:44:09.636Z,2.10
2022-09-24T04:46:45.702Z,2.13
2022-09-24T04:49:36.931Z,2.30
2022-09-24T04:51:54.594Z,2.38
2022-09-24T04:54:00.909Z,2.47
2022-09-24T04:56:30.330Z,2.40
2022-09-24T04:58:52.810Z,2.35
2022-09-24T05:01:38.032Z,2.50
2022-09-24T05:04:22.914Z,2.55
2022-09-24T05:07:19.013Z,2.78
2022-09-24T05:10:00.610Z,2.40
2022-09-24T05:12:33.930Z,2.45
2022-09-24T05:15:03.274Z,2.35
2022-09-24T05:17:19.985Z,2.40
2022-09-24T05:19:51.001Z,2.35
2022-09-24T05:22:20.143Z,2.70
2022-09-24T05:24:49.115Z,2.42
2022-09-24T05:27:31.683Z,2.72
2022-09-24T05:29:53.674Z,2.50
2022-09-24T05:32:43.919Z,2.25
2022-09-24T05:34:53.608Z,2.85
2022-09-24T05:37:35.367Z,2.05
2022-09-24T05:39:44.231Z,2.30
2022-09-24T05:42:32.380Z,3.13
2022-09-24T05:45:03.632Z,2.40
2022-09-24T05:47:48.763Z,2.28
2022-09-24T05:50:31.798Z,2.28
2022-09-24T05:53:15.395Z,2.53
2022-09-24T05:55:50.928Z,2.30
2022-09-24T05:58:08.419Z,2.53
2022-09-24T06:00:49.758Z,2.55
2022-09-24T06:03:10.188Z,2.70
2022-09-24T06:06:03.960Z,2.10
2022-09-24T06:08:37.985Z,2.47
2022-09-24T06:11:09.536Z,1.98
2022-09-24T06:13:49.846Z,2.28
2022-09-24T06:16:21.972Z,1.85
2022-09-24T06:18:53.513Z,1.85
2022-09-24T06:21:28.536Z,1.90
2022-09-24T06:23:57.850Z,1.58
2022-09-24T06:26:14.727Z,1.50
2022-09-24T06:28:45.932Z,1.65
2022-09-24T06:31:19.061Z,1.55
2022-09-24T06:33:48.364Z,1.60
2022-09-24T06:36:05.186Z,1.48
2022-09-24T06:38:29.997Z,1.90
2022-09-24T06:41:06.149Z,1.50
2022-09-24T06:43:57.411Z,1.50
2022-09-24T06:49:12.135Z,1.40
2022-09-24T06:52:06.431Z,1.70
2022-09-24T06:54:25.972Z,1.45
2022-09-24T06:56:43.327Z,1.70
2022-09-24T06:59:12.739Z,1.60
2022-09-24T07:01:30.025Z,1.52
2022-09-24T07:04:11.801Z,1.50
2022-09-24T07:06:50.713Z,1.50
2022-09-24T07:09:20.950Z,1.35
2022-09-24T07:11:50.080Z,1.77
2022-09-24T07:14:34.028Z,1.60
2022-09-24T07:17:24.172Z,1.63
2022-09-24T07:19:56.250Z,1.73
2022-09-24T07:22:39.854Z,1.67
2022-09-24T07:24:56.921Z,1.67
2022-09-24T07:27:40.522Z,2.08
2022-09-24T07:29:58.928Z,1.60
2022-09-24T07:32:05.530Z,1.63
2022-09-24T07:34:34.603Z,1.70
2022-09-24T07:37:17.711Z,1.90
2022-09-24T07:39:47.908Z,1.83
2022-09-24T07:42:16.892Z,1.50
2022-09-24T07:44:48.064Z,1.70
2022-09-24T07:47:09.191Z,1.80
2022-09-24T07:49:41.496Z,1.65
2022-09-24T07:52:25.184Z,1.83
2022-09-24T07:54:54.372Z,1.70
2022-09-24T07:57:40.024Z,1.63
2022-09-24T07:59:56.782Z,1.60
2022-09-24T08:02:51.265Z,2.00
2022-09-24T08:05:20.243Z,1.98
2022-09-24T08:07:49.700Z,2.03
2022-09-24T08:10:34.025Z,2.20
2022-09-24T08:13:15.370Z,2.45
2022-09-24T08:16:11.348Z,2.40
2022-09-24T08:18:31.261Z,2.25
2022-09-24T08:21:16.982Z,2.72
2022-09-24T08:23:51.439Z,3.10
2022-09-24T08:26:35.204Z,2.65
2022-09-24T08:29:28.621Z,2.50
2022-09-24T08:32:00.185Z,1.70
2022-09-24T08:36:58.667Z,2.22
2022-09-24T08:39:17.802Z,1.80
2022-09-24T08:42:06.738Z,1.73
2022-09-24T08:44:57.672Z,2.00
2022-09-24T08:47:49.300Z,2.70
2022-09-24T08:50:20.006Z,2.58
2022-09-24T08:53:09.907Z,2.67
2022-09-24T08:56:03.054Z,3.03
2022-09-24T08:58:56.961Z,3.30
2022-09-24T09:01:33.997Z,3.08
2022-09-24T09:04:22.817Z,6.10
2022-09-24T09:07:12.811Z,3.45
2022-09-24T09:09:54.228Z,2.78
2022-09-24T09:12:41.104Z,2.47
2022-09-24T09:15:18.056Z,2.60
2022-09-24T09:18:16.367Z,2.67
2022-09-24T09:20:43.472Z,6.68
2022-09-24T09:23:02.658Z,8.20
2022-09-24T09:25:26.907Z,6.07
2022-09-24T09:28:19.834Z,5.90
2022-09-24T09:31:05.931Z,4.60
2022-09-24T09:33:41.432Z,4.68
2022-09-24T09:36:31.222Z,3.80
2022-09-24T09:39:06.592Z,19.63
2022-09-24T09:41:50.225Z,25.60
2022-09-24T09:44:44.440Z,26.60
2022-09-24T09:47:36.788Z,30.13
2022-09-24T09:49:43.460Z,25.08
2022-09-24T09:52:12.598Z,33.05
2022-09-24T09:54:45.242Z,27.45
2022-09-24T09:57:04.241Z,23.00
2022-09-24T09:59:48.604Z,9.73
2022-09-24T10:02:10.768Z,9.60
2022-09-24T10:04:55.452Z,7.25
2022-09-24T10:07:24.539Z,3.40
2022-09-24T10:09:43.175Z,4.88
2022-09-24T10:12:29.848Z,4.95
2022-09-24T10:15:22.429Z,3.03
2022-09-24T10:17:41.626Z,2.95
2022-09-24T10:19:48.847Z,2.70
2022-09-24T10:22:20.548Z,2.42
2022-09-24T10:24:51.922Z,2.30
2022-09-24T10:27:28.410Z,3.13
2022-09-24T10:30:02.394Z,3.15
2022-09-24T10:32:45.789Z,4.30
2022-09-24T10:35:17.383Z,4.63
2022-09-24T10:37:59.163Z,4.80
2022-09-24T10:40:31.882Z,6.03
2022-09-24T10:43:26.390Z,6.10
2022-09-24T10:46:01.816Z,5.70
2022-09-24T10:48:56.613Z,5.80
2022-09-24T10:51:37.559Z,4.45
2022-09-24T10:54:06.688Z,4.15
2022-09-24T10:56:50.161Z,4.35
2022-09-24T10:59:14.668Z,3.67
2022-09-24T11:02:17.478Z,3.13
2022-09-24T11:04:56.683Z,2.88
2022-09-24T11:07:47.936Z,3.22
2022-09-24T11:10:38.100Z,3.17
2022-09-24T11:13:33.531Z,3.28
2022-09-24T11:16:02.980Z,3.15
2022-09-24T11:18:59.365Z,2.83
2022-09-24T11:21:23.458Z,2.50
2022-09-24T11:23:57.597Z,2.70
2022-09-24T11:26:37.269Z,2.30
2022-09-24T11:29:06.502Z,2.50
2022-09-24T11:31:36.863Z,2.45
2022-09-24T11:34:21.436Z,1.10
2022-09-24T11:37:03.684Z,1.15
2022-09-24T11:39:48.202Z,1.05
2022-09-24T11:42:29.638Z,1.05
2022-09-24T11:45:04.880Z,0.85
2022-09-24T11:47:46.587Z,0.55
2022-09-24T11:50:22.565Z,1.35
2022-09-24T11:52:54.552Z,1.10
2022-09-24T11:55:17.597Z,0.88
2022-09-24T11:57:27.587Z,1.00
2022-09-24T12:00:15.967Z,1.10
2022-09-24T12:03:07.971Z,1.38
2022-09-24T12:05:48.326Z,1.60
2022-09-24T12:08:30.395Z,1.83
2022-09-24T12:11:12.077Z,2.13
2022-09-24T12:13:53.727Z,2.75
2022-09-24T12:16:36.219Z,2.33
2022-09-24T12:19:27.970Z,3.00
2022-09-24T12:22:10.096Z,2.30
2022-09-24T12:25:06.490Z,2.83
2022-09-24T12:27:37.194Z,2.78
2022-09-24T12:30:27.136Z,2.05
2022-09-24T12:33:20.585Z,2.17
2022-09-24T12:35:50.711Z,1.77
2022-09-24T12:38:14.421Z,1.65
2022-09-24T12:41:11.418Z,1.52
2022-09-24T12:43:32.478Z,2.05
2022-09-24T12:45:50.146Z,1.55
2022-09-24T12:48:09.000Z,1.42
2022-09-24T12:50:50.304Z,1.58
2022-09-24T12:53:07.274Z,1.75
2022-09-24T13:01:25.875Z,1.38
2022-09-24T13:04:26.858Z,1.50
2022-09-24T13:06:44.961Z,1.67
2022-09-24T13:09:14.006Z,1.60
2022-09-24T13:12:07.966Z,1.00
2022-09-24T13:14:22.650Z,1.15
2022-09-24T13:16:44.049Z,1.38
2022-09-24T13:19:13.616Z,1.50
2022-09-24T13:21:35.805Z,1.40
2022-09-24T13:24:13.052Z,1.40
2022-09-24T13:26:37.499Z,1.23
2022-09-24T13:29:07.721Z,1.13
2022-09-24T13:31:56.420Z,1.20
2022-09-24T13:34:46.612Z,1.23
2022-09-24T13:37:28.356Z,1.20
2022-09-24T13:40:20.617Z,0.90
2022-09-24T13:43:05.128Z,1.30
2022-09-24T13:45:47.384Z,1.00
2022-09-24T13:48:16.083Z,1.25
2022-09-24T13:50:52.195Z,1.10
2022-09-24T13:53:45.881Z,1.40
2022-09-24T13:56:39.251Z,1.20
2022-09-24T13:59:25.714Z,1.52
2022-09-24T14:02:20.591Z,1.40
2022-09-24T14:05:01.724Z,2.03
2022-09-24T14:07:19.714Z,1.50
2022-09-24T14:09:37.310Z,1.58
2022-09-24T14:12:30.868Z,1.58
2022-09-24T14:15:13.093Z,1.70
2022-09-24T14:17:54.127Z,2.10
2022-09-24T14:20:27.486Z,1.73
2022-09-24T14:23:09.139Z,2.08
2022-09-24T14:25:33.559Z,2.55
2022-09-24T14:28:14.921Z,2.85
2022-09-24T14:30:41.416Z,2.05
2022-09-24T14:33:07.989Z,1.92
2022-09-24T14:35:46.570Z,1.50
2022-09-24T14:38:24.663Z,2.10
2022-09-24T14:40:41.526Z,1.73
2022-09-24T14:43:03.620Z,1.83
2022-09-24T14:45:44.763Z,2.40
2022-09-24T14:48:51.324Z,2.58
2022-09-24T14:51:34.132Z,1.85
2022-09-24T14:54:18.166Z,2.33
2022-09-24T14:56:47.587Z,2.03
2022-09-24T14:59:17.668Z,2.30
2022-09-24T15:01:59.301Z,2.00
2022-09-24T15:04:17.633Z,2.00
2022-09-24T15:06:30.754Z,2.47
2022-09-24T15:10:52.597Z,2.10
2022-09-24T15:13:09.155Z,2.40
2022-09-24T15:15:54.094Z,2.40
2022-09-24T15:18:25.270Z,2.22
2022-09-24T15:21:06.745Z,2.47
2022-09-24T15:23:48.203Z,2.15
2022-09-24T15:25:53.132Z,2.22
2022-09-24T15:28:34.318Z,2.40
2022-09-24T15:30:51.184Z,2.10
2022-09-24T15:33:22.948Z,1.90
2022-09-24T15:35:41.931Z,2.20
2022-09-24T15:37:58.727Z,1.52
2022-09-24T15:40:34.647Z,1.40
2022-09-24T15:43:06.495Z,1.52
2022-09-24T15:46:00.567Z,1.60
2022-09-24T15:48:42.126Z,1.40
2022-09-24T15:51:24.502Z,1.50
2022-09-24T15:53:54.019Z,1.40
2022-09-24T15:56:23.223Z,1.50
2022-09-24T15:58:52.197Z,1.40
2022-09-24T16:01:27.486Z,1.90
2022-09-24T16:03:45.642Z,1.83
2022-09-24T16:06:16.713Z,1.73
2022-09-24T16:08:45.990Z,1.88
2022-09-24T16:11:05.737Z,1.67
2022-09-24T16:13:27.278Z,1.80
2022-09-24T16:15:57.487Z,2.28
2022-09-24T16:18:29.239Z,2.03
2022-09-24T16:21:22.978Z,2.15
2022-09-24T16:24:07.630Z,1.83
2022-09-24T16:26:38.376Z,2.78
2022-09-24T16:28:55.543Z,2.50
2022-09-24T16:31:12.286Z,2.72
2022-09-24T16:33:42.110Z,2.45
2022-09-24T16:36:24.241Z,2.58
2022-09-24T16:39:05.868Z,2.45
2022-09-24T16:41:59.510Z,2.35
2022-09-24T16:44:40.927Z,2.40
2022-09-24T16:46:58.743Z,2.58
2022-09-24T16:49:15.563Z,2.38
2022-09-24T16:51:44.638Z,2.45
2022-09-24T16:54:27.496Z,2.30
2022-09-24T16:56:44.462Z,2.70
2022-09-24T16:58:49.375Z,3.47
2022-09-24T17:01:23.116Z,3.60
2022-09-24T17:04:16.558Z,3.28
2022-09-24T17:06:35.135Z,3.00
2022-09-24T17:09:16.687Z,3.63
2022-09-24T17:11:45.838Z,3.53
2022-09-24T17:14:39.245Z,3.35
2022-09-24T17:16:43.788Z,3.30
2022-09-24T17:19:01.563Z,3.00
2022-09-24T17:21:30.881Z,3.15
2022-09-24T17:24:12.199Z,2.78
2022-09-24T17:26:29.110Z,3.03
2022-09-24T17:28:59.028Z,2.83
2022-09-24T17:31:41.263Z,2.60
2022-09-24T17:34:11.324Z,2.70
2022-09-24T17:36:28.030Z,2.60
2022-09-24T17:38:45.578Z,2.60
2022-09-24T17:40:59.871Z,3.20
2022-09-24T17:43:18.192Z,2.67
2022-09-24T17:45:48.044Z,2.78
2022-09-24T17:48:30.067Z,2.28
2022-09-24T17:50:58.803Z,2.47
2022-09-24T17:53:40.019Z,2.85
2022-09-24T17:56:09.249Z,2.47
2022-09-24T17:58:41.505Z,2.88
2022-09-24T18:01:10.762Z,2.60
2022-09-24T18:03:51.858Z,2.50
2022-09-24T18:06:20.668Z,2.60
2022-09-24T18:08:37.165Z,2.63
2022-09-24T18:11:18.766Z,3.20
2022-09-24T18:14:04.428Z,2.15
2022-09-24T18:16:34.964Z,2.05
2022-09-24T18:19:04.064Z,2.17
2022-09-24T18:21:46.101Z,2.50
2022-09-24T18:24:15.588Z,2.17
2022-09-24T18:26:47.393Z,2.10
2022-09-24T18:29:19.312Z,1.90
2022-09-24T18:31:48.107Z,2.25
2022-09-24T18:34:07.804Z,2.00
2022-09-24T18:36:24.940Z,2.08
2022-09-24T18:39:06.830Z,2.00
2022-09-24T18:41:41.208Z,1.98
2022-09-24T18:43:57.795Z,2.33
2022-09-24T18:46:06.831Z,2.22
2022-09-24T18:48:48.307Z,2.20
2022-09-24T18:51:06.229Z,2.58
2022-09-24T18:53:11.632Z,2.95
2022-09-24T18:55:29.280Z,2.63
2022-09-24T18:58:10.787Z,2.45
2022-09-24T19:00:51.935Z,2.30
2022-09-24T19:03:22.502Z,2.70
2022-09-24T19:05:51.496Z,2.60
2022-09-24T19:08:21.844Z,2.40
2022-09-24T19:10:51.145Z,2.72
2022-09-24T19:12:56.478Z,2.47
2022-09-24T19:15:26.249Z,2.47
2022-09-24T19:17:55.078Z,2.40
2022-09-24T19:20:36.376Z,2.42
2022-09-24T19:22:40.782Z,2.75
2022-09-24T19:24:58.352Z,2.40
2022-09-24T19:27:02.828Z,2.50
2022-09-24T19:29:44.676Z,2.50
2022-09-24T19:32:26.266Z,2.13
2022-09-24T19:34:42.991Z,1.80
2022-09-24T19:37:12.248Z,1.85
2022-09-24T19:39:53.682Z,2.38
2022-09-24T19:41:58.278Z,2.65
2022-09-24T19:44:29.259Z,2.30
2022-09-24T19:47:10.721Z,2.08
2022-09-24T19:49:39.600Z,2.00
2022-09-24T19:52:21.366Z,1.90
2022-09-24T19:55:14.916Z,1.95
2022-09-24T19:58:08.299Z,2.08
2022-09-24T20:01:01.971Z,1.92
2022-09-24T20:03:43.714Z,1.90
2022-09-24T20:06:28.433Z,2.08
2022-09-24T20:09:01.543Z,1.70
2022-09-24T20:11:35.478Z,1.63
2022-09-24T20:14:09.881Z,2.20
2022-09-24T20:16:58.160Z,2.17
2022-09-24T20:19:46.438Z,1.88
2022-09-24T20:22:29.503Z,1.85
2022-09-24T20:24:48.673Z,1.60
2022-09-24T20:27:08.955Z,1.90
2022-09-24T20:29:39.107Z,2.03
2022-09-24T20:32:11.260Z,1.90
2022-09-24T20:34:53.014Z,2.10
2022-09-24T20:37:10.339Z,2.00
2022-09-24T20:39:40.712Z,1.65
2022-09-24T20:41:57.846Z,1.50
2022-09-24T20:44:39.178Z,1.80
2022-09-24T20:47:25.803Z,1.98
2022-09-24T20:49:54.962Z,1.70
2022-09-24T20:52:12.015Z,1.80
2022-09-24T20:54:29.886Z,2.00
2022-09-24T20:56:59.628Z,2.25
2022-09-24T21:01:55.571Z,2.10
2022-09-24T21:04:21.010Z,2.10
2022-09-24T21:06:38.945Z,2.17
2022-09-24T21:08:56.281Z,2.10
2022-09-24T21:11:19.140Z,2.00
2022-09-24T21:13:42.645Z,1.98
2022-09-24T21:16:05.480Z,1.98
2022-09-24T21:18:30.048Z,2.03
2022-09-24T21:21:16.444Z,2.00
2022-09-24T21:23:59.069Z,2.35
2022-09-24T21:26:42.189Z,2.03
2022-09-24T21:29:00.512Z,2.25
2022-09-24T21:31:45.561Z,1.83
2022-09-24T21:34:16.133Z,3.25
2022-09-24T21:36:39.835Z,2.00
2022-09-24T21:39:14.702Z,1.80
2022-09-24T21:41:33.261Z,2.25
2022-09-24T21:44:28.655Z,2.10
2022-09-24T21:47:09.997Z,2.08
2022-09-24T21:49:52.320Z,2.38
2022-09-24T21:52:46.357Z,1.98
2022-09-24T21:55:18.744Z,2.20
2022-09-24T21:57:38.219Z,1.90
2022-09-24T22:00:12.236Z,1.90
2022-09-24T22:02:48.742Z,2.28
2022-09-24T22:05:32.831Z,1.95
2022-09-24T22:07:51.746Z,2.33
2022-09-24T22:10:09.079Z,2.10
2022-09-24T22:12:47.953Z,2.60
2022-09-24T22:15:29.462Z,2.63
2022-09-24T22:17:51.278Z,2.95
2022-09-24T22:20:37.531Z,2.95
2022-09-24T22:22:55.281Z,2.30
2022-09-24T22:25:24.343Z,2.30
2022-09-24T22:27:55.774Z,2.83
2022-09-24T22:30:13.289Z,2.50
2022-09-24T22:32:43.244Z,3.00
2022-09-24T22:35:16.941Z,3.17
2022-09-24T22:37:48.065Z,4.05
2022-09-24T22:40:18.962Z,4.20
2022-09-24T22:43:06.749Z,4.43
2022-09-24T22:45:38.076Z,5.35
2022-09-24T22:48:23.697Z,3.95
2022-09-24T22:51:11.113Z,3.72
2022-09-24T22:53:42.291Z,3.00
2022-09-24T22:56:21.482Z,3.08
2022-09-24T22:58:46.664Z,2.45
2022-09-24T23:00:54.222Z,2.45
2022-09-24T23:03:25.128Z,2.30
2022-09-24T23:05:54.965Z,3.42
2022-09-24T23:08:27.780Z,2.13
2022-09-24T23:10:55.089Z,2.40
2022-09-24T23:13:26.646Z,2.42
2022-09-24T23:15:33.976Z,2.00
2022-09-24T23:18:07.781Z,1.60
2022-09-24T23:20:25.811Z,1.92
2022-09-24T23:22:45.446Z,1.95
2022-09-24T23:25:30.161Z,1.95
2022-09-24T23:28:05.703Z,2.00
2022-09-24T23:30:59.590Z,1.98
2022-09-24T23:33:06.287Z,2.28
2022-09-24T23:35:29.816Z,2.33
2022-09-24T23:40:45.911Z,1.85
2022-09-24T23:43:48.657Z,2.38
2022-09-24T23:46:07.205Z,2.33
2022-09-24T23:48:44.135Z,2.30
2022-09-24T23:51:21.650Z,2.10
2022-09-24T23:53:45.244Z,2.38
2022-09-24T23:56:34.321Z,2.40
2022-09-24T23:59:07.713Z,2.50
